Time;durP1;ratioP1;P1;durP2;ratioP2;P2;SDS_P1;SDS_P2;PMS_P1;PMS_P2;Temp;Humidity;BMP_temperature;BMP_pressure;BME280_temperature;BME280_humidity;BME280_pressure;Samples;Min_cycle;Max_cycle;Signal;HPM_P1;HPM_P2
2023/10/28 00:00:59;;;;;;;0.60;0.50;;;;;;;10.51;100.00;97399.81;4485393;31;20151;-80
2023/10/28 00:03:27;;;;;;;0.50;0.50;;;;;;;10.52;100.00;97398.84;4485747;31;20152;-80
2023/10/28 00:05:54;;;;;;;1.05;0.40;;;;;;;10.46;100.00;97403.78;4485569;31;20105;-80
2023/10/28 00:08:22;;;;;;;0.93;0.50;;;;;;;10.45;100.00;97396.91;4485708;32;20455;-80
2023/10/28 00:10:51;;;;;;;0.60;0.47;;;;;;;10.39;100.00;97397.59;4485627;32;20114;-80
2023/10/28 00:13:18;;;;;;;0.95;0.60;;;;;;;10.40;100.00;97391.38;4485513;31;20179;-80
2023/10/28 00:15:46;;;;;;;0.95;0.57;;;;;;;10.44;100.00;97394.47;4483341;32;20115;-80
2023/10/28 00:18:14;;;;;;;0.90;0.57;;;;;;;10.49;100.00;97405.22;4469936;32;20119;-80
2023/10/28 00:20:44;;;;;;;2.60;0.52;;;;;;;10.38;100.00;97411.66;4469730;32;20169;-80
2023/10/28 00:23:14;;;;;;;0.77;0.50;;;;;;;10.27;100.00;97410.19;4469704;32;20549;-80
2023/10/28 00:25:42;;;;;;;3.30;0.60;;;;;;;10.27;100.00;97412.81;4469627;32;20450;-80
2023/10/28 00:28:09;;;;;;;2.10;0.77;;;;;;;10.31;100.00;97415.94;4476269;32;20157;-80
2023/10/28 00:30:39;;;;;;;4.72;0.68;;;;;;;10.36;100.00;97416.25;4485193;32;20441;-80
2023/10/28 00:33:06;;;;;;;0.60;0.40;;;;;;;10.39;100.00;97415.91;4485509;31;20146;-80
2023/10/28 00:35:36;;;;;;;0.85;0.70;;;;;;;10.39;100.00;97402.84;4484887;31;20164;-80
2023/10/28 00:38:03;;;;;;;4.25;0.60;;;;;;;10.37;100.00;97396.13;4485598;31;20096;-80
2023/10/28 00:40:32;;;;;;;0.98;0.60;;;;;;;10.42;100.00;97402.50;4485135;32;20981;-80
2023/10/28 00:42:59;;;;;;;0.82;0.52;;;;;;;10.40;100.00;97399.25;4485236;31;20115;-80
2023/10/28 00:45:27;;;;;;;2.60;0.93;;;;;;;10.40;100.00;97409.72;4485102;31;20557;-80
2023/10/28 00:47:56;;;;;;;0.93;0.77;;;;;;;10.36;100.00;97413.66;4485358;31;20124;-80
2023/10/28 00:50:25;;;;;;;0.82;0.70;;;;;;;10.30;100.00;97417.72;4484074;32;20096;-80
2023/10/28 00:52:54;;;;;;;0.73;0.70;;;;;;;10.26;100.00;97423.47;4484665;31;20454;-80
2023/10/28 00:55:23;;;;;;;2.00;0.60;;;;;;;10.25;100.00;97424.44;4485093;31;20105;-80
2023/10/28 00:57:51;;;;;;;4.18;0.82;;;;;;;10.22;100.00;97436.06;4485199;31;20470;-80
2023/10/28 01:00:20;;;;;;;2.03;0.60;;;;;;;10.15;100.00;97437.72;4485243;31;20493;-80
2023/10/28 01:02:49;;;;;;;4.15;0.77;;;;;;;10.15;100.00;97442.94;4485087;31;20084;-80
2023/10/28 01:05:16;;;;;;;0.73;0.50;;;;;;;10.14;100.00;97446.53;4485121;31;20149;-80
2023/10/28 01:07:47;;;;;;;0.62;0.52;;;;;;;10.07;100.00;97442.97;4485055;32;20097;-80
2023/10/28 01:10:44;;;;;;;3.33;0.80;;;;;;;10.02;100.00;97446.09;4485202;31;20122;-80
2023/10/28 01:13:12;;;;;;;1.83;0.50;;;;;;;10.05;100.00;97444.94;4420334;32;20459;-80
2023/10/28 01:15:40;;;;;;;2.08;0.52;;;;;;;10.04;100.00;97444.12;4419078;32;20137;-80
2023/10/28 01:18:10;;;;;;;3.65;0.70;;;;;;;9.98;100.00;97436.09;4405112;32;20157;-80
2023/10/28 01:20:37;;;;;;;1.73;0.52;;;;;;;9.95;100.00;97442.50;4405214;32;20132;-80
2023/10/28 01:23:05;;;;;;;2.90;0.93;;;;;;;9.99;100.00;97437.75;4405196;32;20163;-80
2023/10/28 01:25:33;;;;;;;0.75;0.40;;;;;;;9.99;100.00;97442.97;4405043;32;20102;-81
2023/10/28 01:28:00;;;;;;;1.42;0.88;;;;;;;9.93;100.00;97447.06;4410505;32;20138;-80
2023/10/28 01:30:28;;;;;;;0.80;0.60;;;;;;;9.94;100.00;97446.91;4420421;32;20144;-80
2023/10/28 01:32:55;;;;;;;2.42;0.50;;;;;;;10.07;100.00;97445.59;4420315;32;20178;-80
2023/10/28 01:35:22;;;;;;;1.12;0.52;;;;;;;10.12;100.00;97454.56;4420079;32;20171;-80
2023/10/28 01:37:49;;;;;;;1.12;0.55;;;;;;;10.11;100.00;97445.09;4420510;32;20110;-80
2023/10/28 01:40:17;;;;;;;1.45;0.70;;;;;;;10.01;100.00;97439.22;4420649;32;20097;-80
2023/10/28 01:42:45;;;;;;;0.60;0.60;;;;;;;9.97;100.00;97443.16;4420193;32;20200;-80
2023/10/28 01:45:15;;;;;;;2.72;0.50;;;;;;;9.91;100.00;97447.22;4420239;32;20085;-80
2023/10/28 01:47:43;;;;;;;4.00;0.80;;;;;;;9.92;100.00;97448.06;4420228;32;20101;-80
2023/10/28 01:50:13;;;;;;;0.73;0.50;;;;;;;9.89;100.00;97453.63;4465194;32;20153;-80
2023/10/28 01:52:42;;;;;;;1.87;0.50;;;;;;;9.87;100.00;97445.94;4483456;32;20445;-80
2023/10/28 01:55:14;;;;;;;2.58;0.52;;;;;;;9.90;100.00;97458.69;4485168;31;20123;-80
2023/10/28 01:57:42;;;;;;;2.30;0.73;;;;;;;9.92;100.00;97474.22;4485124;31;20084;-80
2023/10/28 02:00:12;;;;;;;1.00;0.52;;;;;;;9.73;100.00;97473.56;4484886;32;20175;-80
2023/10/28 02:02:46;;;;;;;0.90;0.52;;;;;;;9.77;100.00;97481.91;4484749;31;20092;-80
2023/10/28 02:05:15;;;;;;;1.90;0.62;;;;;;;9.83;100.00;97478.66;4483786;31;20132;-80
2023/10/28 02:07:45;;;;;;;1.48;0.80;;;;;;;9.76;100.00;97478.50;4485042;31;20489;-80
2023/10/28 02:10:13;;;;;;;2.12;1.05;;;;;;;9.88;100.00;97478.97;4484840;32;20115;-80
2023/10/28 02:12:41;;;;;;;0.90;0.70;;;;;;;9.88;100.00;97476.34;4484505;31;20122;-80
2023/10/28 02:15:10;;;;;;;1.30;0.70;;;;;;;9.95;100.00;97473.91;4484582;31;20118;-80
2023/10/28 02:17:38;;;;;;;2.28;0.80;;;;;;;10.00;100.00;97476.81;4470428;31;20535;-80
2023/10/28 02:20:06;;;;;;;2.83;0.90;;;;;;;10.05;100.00;97471.94;4469086;32;20101;-80
2023/10/28 02:22:35;;;;;;;1.15;0.73;;;;;;;10.17;100.00;97471.56;4468855;32;20139;-80
2023/10/28 02:25:04;;;;;;;1.08;0.73;;;;;;;10.15;100.00;97474.34;4469279;32;20114;-80
2023/10/28 02:27:33;;;;;;;2.22;0.90;;;;;;;10.21;100.00;97472.88;4469940;32;20131;-80
2023/10/28 02:30:00;;;;;;;0.73;0.60;;;;;;;10.16;100.00;97475.16;4484686;31;20129;-80
2023/10/28 02:32:27;;;;;;;1.92;1.00;;;;;;;10.22;100.00;97482.34;4484541;31;20607;-80
2023/10/28 02:34:59;;;;;;;0.80;0.75;;;;;;;10.20;100.00;97479.09;4484381;32;20119;-80
2023/10/28 02:37:26;;;;;;;1.98;0.70;;;;;;;10.18;100.00;97478.44;4484551;31;20138;-80
2023/10/28 02:39:54;;;;;;;1.45;1.10;;;;;;;10.16;100.00;97475.16;4484240;32;20095;-80
2023/10/28 02:42:23;;;;;;;1.05;0.70;;;;;;;10.20;100.00;97471.25;4484220;32;20449;-80
2023/10/28 02:44:51;;;;;;;1.35;0.60;;;;;;;10.18;100.00;97470.59;4484361;31;20502;-80
2023/10/28 02:47:18;;;;;;;1.85;0.60;;;;;;;10.14;100.00;97467.47;4484242;31;20579;-80
2023/10/28 02:49:46;;;;;;;1.12;0.50;;;;;;;10.14;100.00;97477.94;4484225;32;20631;-80
2023/10/28 02:52:13;;;;;;;2.42;0.70;;;;;;;10.17;100.00;97466.34;4484263;31;20088;-80
2023/10/28 02:54:42;;;;;;;1.10;0.70;;;;;;;10.12;100.00;97454.56;4484079;32;20100;-80
2023/10/28 02:57:10;;;;;;;0.73;0.50;;;;;;;10.08;100.00;97449.81;4483947;32;20449;-80
2023/10/28 02:59:37;;;;;;;1.92;0.40;;;;;;;10.09;100.00;97451.47;4484257;31;20092;-80
2023/10/28 03:02:05;;;;;;;1.23;0.65;;;;;;;10.03;100.00;97450.34;4483789;32;20166;-80
2023/10/28 03:04:32;;;;;;;1.17;0.50;;;;;;;10.09;100.00;97459.31;4483990;32;20469;-80
2023/10/28 03:07:00;;;;;;;1.45;0.85;;;;;;;10.09;100.00;97460.12;4483688;32;20401;-80
2023/10/28 03:09:29;;;;;;;1.00;0.50;;;;;;;10.11;100.00;97463.41;4483936;32;20460;-80
2023/10/28 03:11:57;;;;;;;1.77;0.57;;;;;;;10.08;100.00;97468.97;4483829;31;20587;-80
2023/10/28 03:14:25;;;;;;;2.72;0.80;;;;;;;10.04;100.00;97466.88;4483857;32;20159;-80
2023/10/28 03:16:53;;;;;;;1.17;0.60;;;;;;;9.93;100.00;97475.84;4475641;32;20158;-80
2023/10/28 03:19:20;;;;;;;2.80;0.80;;;;;;;9.87;100.00;97476.50;4470141;32;20097;-80
2023/10/28 03:21:48;;;;;;;1.33;0.80;;;;;;;9.91;100.00;97477.81;4470021;32;20100;-80
2023/10/28 03:24:15;;;;;;;1.42;0.70;;;;;;;9.81;100.00;97478.00;4468656;32;20115;-80
2023/10/28 03:26:42;;;;;;;1.83;0.82;;;;;;;9.77;100.00;97476.69;4470138;32;20089;-80
2023/10/28 03:29:10;;;;;;;1.73;0.93;;;;;;;9.86;100.00;97477.50;4483260;32;20167;-80
2023/10/28 03:31:38;;;;;;;1.27;0.90;;;;;;;9.84;100.00;97476.84;4485692;32;20152;-80
2023/10/28 03:34:06;;;;;;;3.95;0.93;;;;;;;9.81;100.00;97483.22;4485322;32;20091;-79
2023/10/28 03:36:33;;;;;;;0.73;0.60;;;;;;;9.82;100.00;97484.84;4485603;32;20554;-81
2023/10/28 03:39:01;;;;;;;3.78;0.75;;;;;;;9.70;100.00;97494.81;4485787;32;20446;-80
2023/10/28 03:41:29;;;;;;;1.98;0.73;;;;;;;9.57;100.00;97495.31;4485648;32;20096;-80
2023/10/28 03:43:56;;;;;;;1.17;0.70;;;;;;;9.54;100.00;97500.87;4485533;31;20092;-80
2023/10/28 03:46:25;;;;;;;3.40;0.75;;;;;;;9.53;100.00;97498.41;4485558;32;20096;-80
2023/10/28 03:48:53;;;;;;;3.90;0.90;;;;;;;9.48;100.00;97496.28;4485500;31;20119;-80
2023/10/28 03:51:21;;;;;;;2.92;0.90;;;;;;;9.45;100.00;97494.00;4485672;31;20100;-80
2023/10/28 03:53:48;;;;;;;3.80;0.82;;;;;;;9.53;100.00;97493.19;4485598;32;20587;-80
2023/10/28 03:56:15;;;;;;;1.25;1.00;;;;;;;9.41;100.00;97495.28;4485508;32;20097;-80
2023/10/28 03:58:43;;;;;;;3.12;1.60;;;;;;;9.44;100.00;97497.56;4485560;32;20092;-80
2023/10/28 04:01:11;;;;;;;3.25;1.25;;;;;;;9.43;100.00;97510.81;4485353;31;20531;-80
2023/10/28 04:03:38;;;;;;;2.03;1.40;;;;;;;9.36;100.00;97505.41;4485456;32;20505;-80
2023/10/28 04:06:06;;;;;;;2.58;1.37;;;;;;;9.33;100.00;97508.34;4485539;32;20536;-80
2023/10/28 04:08:34;;;;;;;1.37;1.15;;;;;;;9.29;100.00;97509.63;4485487;32;20148;-80
2023/10/28 04:11:03;;;;;;;7.95;1.73;;;;;;;9.26;100.00;97496.91;4485537;32;20096;-80
2023/10/28 04:13:32;;;;;;;3.65;1.35;;;;;;;9.26;100.00;97500.31;4485736;31;20096;-80
2023/10/28 04:16:01;;;;;;;3.67;2.08;;;;;;;9.22;100.00;97499.03;4482133;31;20120;-80
2023/10/28 04:18:29;;;;;;;2.80;1.70;;;;;;;9.21;100.00;97494.75;4469976;32;20100;-81
2023/10/28 04:20:56;;;;;;;2.35;1.60;;;;;;;9.21;100.00;97505.22;4469495;32;20101;-80
2023/10/28 04:23:25;;;;;;;3.20;1.75;;;;;;;9.19;100.00;97508.00;4469726;32;20119;-80
2023/10/28 04:25:53;;;;;;;3.40;2.00;;;;;;;9.15;100.00;97519.72;4470041;32;20150;-80
2023/10/28 04:28:21;;;;;;;3.70;1.73;;;;;;;9.14;100.00;97514.66;4476635;32;20123;-80
2023/10/28 04:30:57;;;;;;;4.07;1.87;;;;;;;9.09;100.00;97525.59;4485353;31;20096;-80
2023/10/28 04:33:25;;;;;;;6.40;3.12;;;;;;;9.05;100.00;97530.31;4485359;31;20088;-80
2023/10/28 04:35:53;;;;;;;6.00;2.62;;;;;;;9.09;100.00;97524.78;4485472;31;20100;-80
2023/10/28 04:38:21;;;;;;;9.27;3.58;;;;;;;9.19;100.00;97525.44;4485252;31;20084;-80
2023/10/28 04:40:49;;;;;;;6.35;3.60;;;;;;;9.22;100.00;97525.16;4485498;31;20587;-80
2023/10/28 04:43:19;;;;;;;7.43;3.83;;;;;;;9.27;100.00;97525.47;4485450;31;20118;-80
2023/10/28 04:45:46;;;;;;;7.35;4.07;;;;;;;9.23;100.00;97521.53;4485202;31;20438;-80
2023/10/28 04:48:13;;;;;;;8.27;4.07;;;;;;;9.18;100.00;97522.03;4484940;32;20443;-80
2023/10/28 04:50:43;;;;;;;6.35;3.67;;;;;;;9.26;100.00;97518.59;4485027;32;20104;-80
2023/10/28 04:53:16;;;;;;;5.87;3.47;;;;;;;9.23;100.00;97516.31;4485240;31;20148;-80
2023/10/28 04:55:44;;;;;;;5.85;3.65;;;;;;;9.22;100.00;97519.94;4485222;32;20089;-80
2023/10/28 04:58:12;;;;;;;6.50;3.70;;;;;;;9.18;100.00;97523.81;4485033;31;20096;-80
2023/10/28 05:00:39;;;;;;;6.95;3.42;;;;;;;9.15;100.00;97517.13;4485097;31;20126;-80
2023/10/28 05:03:07;;;;;;;7.03;3.25;;;;;;;9.29;100.00;97512.25;4483872;32;20496;-81
2023/10/28 05:05:37;;;;;;;7.90;3.85;;;;;;;9.35;100.00;97517.66;4485219;32;20149;-80
2023/10/28 05:08:04;;;;;;;5.72;3.50;;;;;;;9.37;100.00;97515.72;4485109;31;20100;-80
2023/10/28 05:10:32;;;;;;;5.35;3.15;;;;;;;9.43;100.00;97522.06;4485153;31;20113;-81
2023/10/28 05:13:00;;;;;;;5.25;3.10;;;;;;;9.40;100.00;97531.06;4485067;31;20092;-81
2023/10/28 05:15:28;;;;;;;5.70;3.10;;;;;;;9.40;100.00;97528.47;4484932;31;20110;-81
2023/10/28 05:17:56;;;;;;;5.57;3.00;;;;;;;9.37;100.00;97538.41;4469458;32;20492;-81
2023/10/28 05:20:24;;;;;;;6.60;3.20;;;;;;;9.31;100.00;97539.87;4469000;32;20599;-81
2023/10/28 05:22:52;;;;;;;4.07;3.12;;;;;;;9.21;100.00;97545.22;4469226;32;20115;-81
2023/10/28 05:25:20;;;;;;;5.57;3.00;;;;;;;9.33;100.00;97539.72;4469021;32;20124;-81
2023/10/28 05:27:47;;;;;;;5.65;3.45;;;;;;;9.33;100.00;97544.94;4473352;32;20088;-81
2023/10/28 05:30:15;;;;;;;8.70;3.58;;;;;;;9.25;100.00;97553.56;4484740;32;20518;-81
2023/10/28 05:32:42;;;;;;;50.20;4.28;;;;;;;9.22;100.00;97573.00;4485061;31;20416;-81
2023/10/28 05:35:11;;;;;;;304.20;15.13;;;;;;;9.27;100.00;97595.22;4482017;31;77871;-81
2023/10/28 05:37:39;;;;;;;295.40;13.98;;;;;;;9.24;100.00;97597.16;4484885;31;20440;-80
2023/10/28 05:40:10;;;;;;;170.23;7.12;;;;;;;9.37;100.00;97598.50;4484514;32;20200;-81
2023/10/28 05:42:38;;;;;;;279.90;9.75;;;;;;;9.43;100.00;97599.69;4485168;31;20072;-81
2023/10/28 05:45:14;;;;;;;143.15;7.07;;;;;;;9.50;100.00;97600.69;4484914;31;20108;-81
2023/10/28 05:47:41;;;;;;;157.93;9.50;;;;;;;9.63;100.00;97610.69;4484773;32;20153;-81
2023/10/28 05:50:09;;;;;;;217.75;8.93;;;;;;;9.76;100.00;97611.88;4484714;32;20504;-81
2023/10/28 05:52:38;;;;;;;184.48;8.82;;;;;;;9.89;100.00;97621.84;4484934;31;20087;-81
2023/10/28 05:55:12;;;;;;;314.05;14.95;;;;;;;10.02;100.00;97616.16;4484607;32;20119;-80
2023/10/28 05:57:40;;;;;;;256.67;12.02;;;;;;;10.17;100.00;97618.94;4484554;31;20123;-81
2023/10/28 06:00:10;;;;;;;248.85;12.95;;;;;;;10.33;100.00;97625.19;4484638;31;20163;-81
2023/10/28 06:02:39;;;;;;;267.60;13.13;;;;;;;10.38;100.00;97628.94;4484550;31;20088;-81
2023/10/28 06:05:07;;;;;;;244.30;13.40;;;;;;;10.44;100.00;97630.91;4485003;31;20092;-81
2023/10/28 06:07:47;;;;;;;231.33;10.57;;;;;;;10.51;100.00;97641.56;4484689;31;20461;-81
2023/10/28 06:10:15;;;;;;;278.50;17.87;;;;;;;10.56;100.00;97641.06;4484547;31;20593;-81
2023/10/28 06:12:42;;;;;;;243.05;12.02;;;;;;;10.70;100.00;97645.63;4484981;31;20088;-81
2023/10/28 06:15:11;;;;;;;346.10;16.52;;;;;;;10.91;100.00;97649.53;4484733;32;20136;-81
2023/10/28 06:17:39;;;;;;;520.47;25.92;;;;;;;10.89;100.00;97648.91;4470607;31;20103;-81
2023/10/28 06:20:07;;;;;;;301.42;21.95;;;;;;;10.94;100.00;97657.88;4468814;32;20462;-81
2023/10/28 06:22:35;;;;;;;219.00;14.00;;;;;;;10.98;100.00;97659.19;4468644;32;20165;-81
2023/10/28 06:25:04;;;;;;;288.42;12.65;;;;;;;11.03;100.00;97660.50;4468596;32;20150;-81
2023/10/28 06:27:33;;;;;;;131.57;6.82;;;;;;;10.95;100.00;97653.47;4471133;32;20117;-81
2023/10/28 06:30:01;;;;;;;148.62;7.32;;;;;;;11.15;100.00;97661.75;4484387;31;20482;-81
2023/10/28 06:32:29;;;;;;;251.07;10.18;;;;;;;11.27;100.00;97657.78;4484367;32;20111;-80
2023/10/28 06:34:56;;;;;;;215.02;12.00;;;;;;;11.25;100.00;97657.16;4484295;32;20111;-80
2023/10/28 06:37:24;;;;;;;198.15;9.80;;;;;;;11.27;100.00;97662.22;4484352;32;20152;-81
2023/10/28 06:39:52;;;;;;;79.55;4.40;;;;;;;11.47;100.00;97668.69;4484292;32;20088;-81
2023/10/28 06:42:23;;;;;;;154.10;7.32;;;;;;;11.57;100.00;97672.91;4484361;31;20149;-81
2023/10/28 06:44:51;;;;;;;91.32;5.57;;;;;;;11.59;100.00;97677.00;4484222;31;20477;-81
2023/10/28 06:47:20;;;;;;;13.18;3.28;;;;;;;11.72;100.00;97674.66;4484425;32;20453;-81
2023/10/28 06:49:47;;;;;;;4.80;2.70;;;;;;;11.84;100.00;97675.09;4484263;31;20393;-81
2023/10/28 06:52:15;;;;;;;5.97;2.70;;;;;;;11.90;100.00;97673.59;4483401;32;20092;-81
2023/10/28 06:54:42;;;;;;;3.78;2.20;;;;;;;12.04;100.00;97670.25;4484440;32;20149;-81
2023/10/28 06:57:10;;;;;;;4.15;2.35;;;;;;;12.23;100.00;97678.66;4484050;31;20697;-81
2023/10/28 06:59:38;;;;;;;3.72;2.47;;;;;;;12.37;100.00;97679.72;4484093;32;20104;-81
2023/10/28 07:02:05;;;;;;;1.87;1.50;;;;;;;12.49;100.00;97683.59;4483965;32;20101;-80
2023/10/28 07:04:33;;;;;;;1.73;1.12;;;;;;;12.72;100.00;97690.63;4483916;32;20156;-81
2023/10/28 07:07:01;;;;;;;2.87;1.90;;;;;;;12.84;100.00;97694.47;4483838;32;20108;-80
2023/10/28 07:09:29;;;;;;;2.62;1.60;;;;;;;12.75;100.00;97692.91;4484222;32;20096;-81
2023/10/28 07:11:56;;;;;;;2.78;1.58;;;;;;;12.91;100.00;97699.81;4483931;32;20097;-81
2023/10/28 07:14:25;;;;;;;2.50;2.00;;;;;;;12.96;100.00;97706.16;4483889;32;20582;-81
2023/10/28 07:16:53;;;;;;;3.25;1.90;;;;;;;13.06;100.00;97721.69;4474853;31;20374;-81
2023/10/28 07:19:21;;;;;;;5.68;2.17;;;;;;;13.20;100.00;97722.72;4468157;32;20119;-81
2023/10/28 07:21:50;;;;;;;2.90;2.20;;;;;;;13.37;100.00;97733.06;4468049;32;20105;-81
2023/10/28 07:24:17;;;;;;;4.87;2.75;;;;;;;13.48;100.00;97745.81;4468226;32;20117;-81
2023/10/28 07:26:46;;;;;;;14.35;3.00;;;;;;;13.45;100.00;97746.97;4468222;32;20118;-81
2023/10/28 07:29:13;;;;;;;6.22;3.58;;;;;;;13.31;100.00;97761.72;4481604;32;20464;-81
2023/10/28 07:31:43;;;;;;;3.75;2.60;;;;;;;13.56;100.00;97758.84;4483833;32;20123;-81
2023/10/28 07:34:10;;;;;;;4.82;2.70;;;;;;;13.67;100.00;97760.22;4483522;32;20169;-81
2023/10/28 07:36:37;;;;;;;3.95;2.62;;;;;;;13.76;100.00;97763.56;4483856;32;20485;-81
2023/10/28 07:39:06;;;;;;;3.47;2.22;;;;;;;13.91;100.00;97756.47;4483628;32;20111;-81
2023/10/28 07:41:34;;;;;;;3.85;2.20;;;;;;;14.19;100.00;97759.25;4483276;32;20088;-81
2023/10/28 07:44:01;;;;;;;3.40;2.12;;;;;;;14.41;100.00;97761.91;4483550;32;20140;-81
2023/10/28 07:46:30;;;;;;;2.28;1.83;;;;;;;14.61;100.00;97756.91;4483403;32;20423;-81
2023/10/28 07:49:00;;;;;;;2.12;1.58;;;;;;;14.72;100.00;97747.69;4483869;31;20111;-81
2023/10/28 07:51:27;;;;;;;1.83;1.23;;;;;;;14.75;100.00;97752.56;4483307;32;20427;-81
2023/10/28 07:53:55;;;;;;;1.00;0.70;;;;;;;14.97;100.00;97752.53;4483507;32;20108;-81
2023/10/28 07:56:23;;;;;;;1.95;0.70;;;;;;;15.30;100.00;97758.06;4483300;32;20144;-81
2023/10/28 07:58:52;;;;;;;0.62;0.60;;;;;;;15.25;100.00;97757.84;4483208;32;20118;-81
2023/10/28 08:01:22;;;;;;;0.80;0.77;;;;;;;15.27;100.00;97761.91;4483229;32;20132;-81
2023/10/28 08:03:51;;;;;;;1.50;0.88;;;;;;;15.27;100.00;97769.00;4485444;32;20115;-81
2023/10/28 08:06:19;;;;;;;0.50;0.50;;;;;;;15.40;100.00;97776.22;4485522;31;20538;-81
2023/10/28 08:09:05;;;;;;;1.12;0.77;;;;;;;15.43;100.00;97773.19;4485935;31;20103;-81
2023/10/28 08:11:33;;;;;;;0.70;0.57;;;;;;;15.65;100.00;97781.03;4485518;31;20142;-81
2023/10/28 08:14:03;;;;;;;1.10;0.75;;;;;;;15.90;100.00;97776.16;4485873;31;20173;-81
2023/10/28 08:16:34;;;;;;;1.40;1.00;;;;;;;15.98;100.00;97783.09;4485401;31;20945;-81
2023/10/28 08:19:03;;;;;;;1.73;1.15;;;;;;;16.21;100.00;97788.06;4485517;31;20088;-81
2023/10/28 08:21:34;;;;;;;2.10;1.45;;;;;;;16.32;100.00;97784.84;4484402;32;20099;-81
2023/10/28 08:24:02;;;;;;;1.60;1.20;;;;;;;16.44;100.00;97793.84;4485361;32;20100;-81
2023/10/28 08:26:29;;;;;;;1.98;1.20;;;;;;;16.39;100.00;97790.97;4485623;31;20169;-81
2023/10/28 08:29:00;;;;;;;1.62;1.05;;;;;;;16.47;100.00;97803.19;4473605;32;20175;-81
2023/10/28 08:31:28;;;;;;;1.92;1.02;;;;;;;16.42;100.00;97813.56;4468666;32;20426;-81
2023/10/28 08:33:56;;;;;;;1.10;0.90;;;;;;;16.57;100.00;97802.81;4469831;32;20098;-81
2023/10/28 08:36:25;;;;;;;1.15;0.75;;;;;;;16.46;100.00;97817.44;4469924;32;20096;-82
2023/10/28 08:39:13;;;;;;;1.08;0.80;;;;;;;16.53;100.00;97817.44;4469607;32;20100;-82
2023/10/28 08:41:43;;;;;;;2.25;0.93;;;;;;;16.63;100.00;97825.81;4469601;32;20485;-81
2023/10/28 08:44:14;;;;;;;0.70;0.50;;;;;;;16.60;100.00;97837.59;4469687;32;20109;-82
2023/10/28 08:46:42;;;;;;;0.95;0.43;;;;;;;16.62;100.00;97840.88;4469670;32;20119;-81
2023/10/28 08:49:14;;;;;;;0.95;0.70;;;;;;;16.54;100.00;97841.03;4468418;32;20080;-81
2023/10/28 08:51:42;;;;;;;1.17;0.82;;;;;;;16.45;100.00;97845.69;4469603;32;20157;-81
2023/10/28 08:54:10;;;;;;;2.15;0.80;;;;;;;16.43;100.00;97850.38;4468332;32;20158;-81
2023/10/28 08:56:40;;;;;;;2.33;0.70;;;;;;;16.17;100.00;97839.66;4469666;32;20097;-81
2023/10/28 08:59:10;;;;;;;1.10;0.65;;;;;;;15.98;100.00;97847.28;4468358;32;20084;-81
2023/10/28 09:01:37;;;;;;;1.23;0.75;;;;;;;16.11;100.00;97857.94;4469449;32;20109;-81
2023/10/28 09:04:06;;;;;;;1.77;1.12;;;;;;;16.11;100.00;97857.94;4469317;32;20093;-81
2023/10/28 09:06:33;;;;;;;3.15;2.20;;;;;;;16.25;100.00;97855.38;4469675;32;20106;-82
2023/10/28 09:09:09;;;;;;;3.53;2.10;;;;;;;16.50;100.00;97856.50;4469499;32;20077;-81
2023/10/28 09:11:39;;;;;;;3.12;2.12;;;;;;;16.50;100.00;97868.88;4469711;32;20152;-81
2023/10/28 09:14:09;;;;;;;2.53;1.90;;;;;;;16.23;100.00;97866.13;4468928;32;20097;-82
2023/10/28 09:16:38;;;;;;;5.70;1.70;;;;;;;15.94;100.00;97870.66;4477071;32;20164;-81
2023/10/28 09:19:08;;;;;;;4.65;1.60;;;;;;;15.68;100.00;97876.53;4484885;32;20119;-81
2023/10/28 09:21:36;;;;;;;4.12;2.80;;;;;;;15.63;100.00;97871.00;4483918;32;20085;-82
2023/10/28 09:24:05;;;;;;;6.87;2.60;;;;;;;15.64;100.00;97872.66;4484788;32;20522;-81
2023/10/28 09:26:33;;;;;;;3.58;2.10;;;;;;;15.76;100.00;97876.38;4483744;32;20463;-81
2023/10/28 09:29:01;;;;;;;5.72;2.65;;;;;;;16.03;100.00;97884.50;4472911;32;20220;-81
2023/10/28 09:31:29;;;;;;;1.60;1.37;;;;;;;16.20;100.00;97878.91;4469259;32;20093;-81
2023/10/28 09:33:57;;;;;;;1.83;1.30;;;;;;;16.40;100.00;97885.13;4469277;32;20081;-79
2023/10/28 09:36:25;;;;;;;0.93;0.77;;;;;;;16.43;100.00;97884.72;4469279;32;20122;-81
2023/10/28 09:38:53;;;;;;;3.05;1.05;;;;;;;16.36;100.00;97880.44;4469133;32;20111;-82
2023/10/28 09:41:21;;;;;;;3.58;1.05;;;;;;;16.45;100.00;97885.34;4469231;32;20081;-81
2023/10/28 09:43:49;;;;;;;1.37;0.93;;;;;;;16.52;100.00;97880.09;4468865;32;20426;-82
2023/10/28 09:46:20;;;;;;;1.60;0.73;;;;;;;16.46;100.00;97892.25;4469087;32;20173;-81
2023/10/28 09:48:49;;;;;;;1.30;0.55;;;;;;;16.52;100.00;97881.91;4469092;32;20450;-81
2023/10/28 09:51:22;;;;;;;0.60;0.57;;;;;;;16.35;100.00;97881.44;4469122;32;20593;-82
2023/10/28 09:53:53;;;;;;;2.42;0.60;;;;;;;16.44;100.00;97882.87;4469102;32;20097;-82
2023/10/28 09:56:22;;;;;;;0.60;0.52;;;;;;;16.73;100.00;97868.56;4467976;32;20150;-81
2023/10/28 09:59:00;;;;;;;0.75;0.60;;;;;;;16.87;100.00;97877.41;4467771;32;20385;-81
2023/10/28 10:01:38;;;;;;;1.08;0.70;;;;;;;17.10;100.00;97877.03;4467843;32;20146;-81
2023/10/28 10:04:39;;;;;;;1.80;0.60;;;;;;;17.18;100.00;97883.97;4467688;32;20144;-82
2023/10/28 10:07:09;;;;;;;0.40;0.40;;;;;;;17.13;100.00;97875.81;4422946;32;20092;-82
2023/10/28 10:09:44;;;;;;;0.93;0.60;;;;;;;17.22;100.00;97876.44;4422889;32;20097;-79
2023/10/28 10:12:12;;;;;;;1.10;0.68;;;;;;;17.06;100.00;97875.78;4435597;32;20479;-82
2023/10/28 10:14:47;;;;;;;0.50;0.50;;;;;;;17.05;100.00;97874.19;4435438;32;20788;-81
2023/10/28 10:17:54;;;;;;;0.70;0.50;;;;;;;16.91;100.00;97876.00;4446916;32;20124;-82
2023/10/28 10:20:25;;;;;;;0.52;0.45;;;;;;;16.65;100.00;97874.03;4450199;32;20121;-82
2023/10/28 10:23:00;;;;;;;0.65;0.50;;;;;;;16.40;100.00;97871.09;4450752;32;20201;-81
2023/10/28 10:25:36;;;;;;;1.45;0.88;;;;;;;16.52;100.00;97868.69;4449593;32;20148;-81
2023/10/28 10:28:15;;;;;;;1.67;0.65;;;;;;;16.75;100.00;97869.19;4445293;32;20100;-82
2023/10/28 10:30:43;;;;;;;1.40;0.62;;;;;;;16.74;100.00;97872.84;4435472;32;20105;-82
2023/10/28 10:33:26;;;;;;;1.85;0.70;;;;;;;16.76;100.00;97867.34;4435732;32;20111;-82
2023/10/28 10:35:54;;;;;;;0.90;0.70;;;;;;;16.77;100.00;97876.91;4435194;32;20209;-81
2023/10/28 10:38:28;;;;;;;0.75;0.50;;;;;;;16.77;100.00;97877.72;4435286;32;20097;-82
2023/10/28 10:40:59;;;;;;;1.52;0.60;;;;;;;16.78;100.00;97889.94;4435690;32;20592;-82
2023/10/28 10:43:32;;;;;;;1.02;0.80;;;;;;;17.00;100.00;97882.72;4446485;32;20154;-81
2023/10/28 10:46:00;;;;;;;0.70;0.70;;;;;;;17.19;100.00;97885.59;4467497;32;20109;-81
2023/10/28 10:48:27;;;;;;;1.45;0.90;;;;;;;16.92;100.00;97890.03;4468707;32;20084;-82
2023/10/28 10:50:56;;;;;;;1.30;0.80;;;;;;;17.18;100.00;97873.38;4468617;32;20163;-82
2023/10/28 10:53:24;;;;;;;3.60;1.02;;;;;;;17.88;100.00;97876.44;4468473;32;20436;-82
2023/10/28 10:55:51;;;;;;;2.40;0.85;;;;;;;17.88;100.00;97875.59;4468407;32;20089;-82
2023/10/28 10:58:18;;;;;;;1.83;0.75;;;;;;;18.13;100.00;97875.81;4468526;32;20109;-82
2023/10/28 11:00:54;;;;;;;4.53;1.00;;;;;;;18.16;100.00;97882.53;4468287;32;20092;-82
2023/10/28 11:03:24;;;;;;;0.75;0.50;;;;;;;18.06;100.00;97880.31;4468555;32;20485;-82
2023/10/28 11:05:52;;;;;;;1.17;0.70;;;;;;;18.03;100.00;97886.00;4466870;32;20128;-82
2023/10/28 11:08:19;;;;;;;1.05;0.60;;;;;;;18.12;97.60;97889.25;4468443;32;20085;-82
2023/10/28 11:10:47;;;;;;;1.40;0.77;;;;;;;18.41;98.29;97872.88;4468244;32;20453;-82
2023/10/28 11:13:14;;;;;;;1.15;0.93;;;;;;;18.95;97.03;97865.47;4468437;32;20123;-82
2023/10/28 11:15:41;;;;;;;1.20;0.60;;;;;;;18.93;100.00;97859.59;4469502;32;20563;-82
2023/10/28 11:18:09;;;;;;;0.60;0.60;;;;;;;18.43;95.06;97859.41;4483948;32;20164;-82
2023/10/28 11:20:37;;;;;;;1.20;0.60;;;;;;;18.14;94.61;97864.19;4483696;31;20445;-82
2023/10/28 11:23:04;;;;;;;0.95;0.62;;;;;;;17.92;97.96;97858.31;4483803;31;20088;-82
2023/10/28 11:25:32;;;;;;;1.02;0.68;;;;;;;18.38;98.90;97856.56;4482181;32;20096;-82
2023/10/28 11:28:10;;;;;;;1.35;0.93;;;;;;;18.48;99.52;97850.81;4476939;32;20141;-82
2023/10/28 11:30:37;;;;;;;0.50;0.50;;;;;;;18.56;95.62;97859.34;4468075;32;20110;-82
2023/10/28 11:33:08;;;;;;;0.77;0.50;;;;;;;18.36;96.54;97851.47;4467955;32;20088;-82
2023/10/28 11:35:36;;;;;;;0.80;0.47;;;;;;;18.49;89.72;97868.38;4467622;32;20138;-82